Check out our new BloomSky Weather System.

Active alerts


No alerts


Thunder radar  blitzortung!


Rain radar more information rain snow radar


Visit our other weather sites:

Template documentation
and downloads

And another site



Weather Underground History page Text

Daily Summary for February 26, 2017 Units:  Metric    English   Both
« Previous Day
Next Day »
Daily Weekly Monthly Yearly Custom
  High: Low: Average:
Temperature: 23.5 °C 6.7 °C 16.6 °C
Dew Point: 18.9 °C 1.9 °C 11.8 °C
Humidity: 94 % 56 % 74 %
Wind Speed: 24.1 km/h 0 km/h 6.3 km/h
Wind Gust: 33.8 km/h - -
Wind:- - SE
Pressure: 1018.2 hPa 1012.8 hPa -
Precipitation: 0 mm    
Historical Graphs
 
 
Tabular Data for February 26, 2017
Time Temperature Dew Point Pressure Wind Wind Speed Wind Gust Humidity Rainfall Rate (Hourly)
00:03 10.4 °C 2 °C 1018.2 hPa Calm   1.6 km/h 56 % 0 mm
00:08 10.3 °C 1.9 °C 1017.8 hPa Calm   1.6 km/h 56 % 0 mm
00:13 10.2 °C 2.1 °C 1018.2 hPa Calm   1.6 km/h 57 % 0 mm
00:18 10.1 °C 2.2 °C 1018.2 hPa Calm   1.6 km/h 58 % 0 mm
00:23 10.1 °C 2.2 °C 1017.8 hPa Calm   1.6 km/h 58 % 0 mm
00:28 10.1 °C 2.2 °C 1017.8 hPa Calm   1.6 km/h 58 % 0 mm
00:33 10.1 °C 2.2 °C 1017.8 hPa Calm   1.6 km/h 58 % 0 mm
00:38 10.1 °C 2.4 °C 1017.8 hPa Calm   1.6 km/h 59 % 0 mm
00:43 10.1 °C 2.4 °C 1017.5 hPa Calm   1.6 km/h 59 % 0 mm
00:48 10.1 °C 2.4 °C 1017.8 hPa Calm   1.6 km/h 59 % 0 mm
00:53 10.1 °C 2.4 °C 1017.8 hPa East 1.6 km/h 1.6 km/h 59 % 0 mm
00:58 10.1 °C 2.4 °C 1017.8 hPa Calm   3.2 km/h 59 % 0 mm
01:04 10.1 °C 2.4 °C 1017.8 hPa Calm   3.2 km/h 59 % 0 mm
01:09 10.1 °C 2.4 °C 1017.8 hPa ESE 1.6 km/h 3.2 km/h 59 % 0 mm
01:14 10.1 °C 2.2 °C 1017.5 hPa Calm   6.4 km/h 58 % 0 mm
01:19 9.9 °C 2 °C 1017.5 hPa Calm   6.4 km/h 58 % 0 mm
01:24 9.8 °C 2.2 °C 1017.8 hPa Calm   6.4 km/h 59 % 0 mm
01:29 9.6 °C 2 °C 1017.5 hPa Calm   1.6 km/h 59 % 0 mm
01:34 9.4 °C 2 °C 1017.5 hPa Calm   1.6 km/h 60 % 0 mm
01:39 9.4 °C 2 °C 1017.5 hPa Calm   1.6 km/h 60 % 0 mm
01:44 9.3 °C 1.9 °C 1017.2 hPa Calm   1.6 km/h 60 % 0 mm
01:49 9.1 °C 2 °C 1017.5 hPa Calm   1.6 km/h 61 % 0 mm
01:54 8.9 °C 2 °C 1017.2 hPa Calm   1.6 km/h 62 % 0 mm
01:59 8.7 °C 2 °C 1017.2 hPa Calm     63 % 0 mm
02:04 8.8 °C 2.1 °C 1017.2 hPa Calm     63 % 0 mm
02:09 8.7 °C 2.3 °C 1017.2 hPa Calm     64 % 0 mm
02:14 8.6 °C 2.4 °C 1017.2 hPa Calm     65 % 0 mm
02:19 8.5 °C 2.3 °C 1017.2 hPa Calm     65 % 0 mm
02:24 8.3 °C 2.1 °C 1016.8 hPa Calm     65 % 0 mm
02:29 8.2 °C 2.2 °C 1016.8 hPa Calm     66 % 0 mm
02:34 8.3 °C 2.3 °C 1016.8 hPa Calm   1.6 km/h 66 % 0 mm
02:39 8.2 °C 2.2 °C 1016.8 hPa Calm   1.6 km/h 66 % 0 mm
02:44 8.1 °C 2.3 °C 1016.8 hPa Calm   1.6 km/h 67 % 0 mm
02:49 7.9 °C 2.4 °C 1016.8 hPa Calm     68 % 0 mm
02:54 7.7 °C 2.2 °C 1016.8 hPa Calm     68 % 0 mm
02:59 7.6 °C 2.5 °C 1016.8 hPa Calm     70 % 0 mm
03:04 7.5 °C 2.6 °C 1016.8 hPa Calm     71 % 0 mm
03:09 7.4 °C 2.5 °C 1016.5 hPa Calm     71 % 0 mm
03:14 7.3 °C 2.4 °C 1016.5 hPa Calm     71 % 0 mm
03:19 7.2 °C 2.5 °C 1016.5 hPa Calm     72 % 0 mm
03:24 7 °C 2.3 °C 1016.5 hPa Calm     72 % 0 mm
03:29 6.8 °C 2.3 °C 1016.5 hPa Calm     73 % 0 mm
03:34 6.8 °C 2.5 °C 1016.5 hPa Calm     74 % 0 mm
03:39 6.7 °C 2.4 °C 1016.5 hPa Calm     74 % 0 mm
03:44 6.8 °C 2.7 °C 1016.5 hPa Calm     75 % 0 mm
03:49 6.9 °C 2.8 °C 1016.1 hPa Calm     75 % 0 mm
03:55 6.9 °C 2.8 °C 1016.1 hPa Calm     75 % 0 mm
03:56 6.9 °C 2.8 °C 1016.1 hPa Calm     75 % 0 mm
04:01 6.9 °C 2.8 °C 1016.1 hPa Calm     75 % 0 mm
04:06 7.1 °C 3.2 °C 1016.1 hPa East 1.6 km/h 1.6 km/h 76 % 0 mm
04:11 7.3 °C 3.2 °C 1016.1 hPa Calm   1.6 km/h 75 % 0 mm
04:16 7.5 °C 3.4 °C 1015.8 hPa Calm   4.8 km/h 75 % 0 mm
04:21 7.8 °C 3.5 °C 1015.8 hPa Calm   4.8 km/h 74 % 0 mm
04:26 8.1 °C 3.6 °C 1015.8 hPa ENE 1.6 km/h 4.8 km/h 73 % 0 mm
04:31 8.3 °C 3.5 °C 1015.8 hPa ENE 1.6 km/h 3.2 km/h 72 % 0 mm
04:36 8.5 °C 3.7 °C 1015.8 hPa Calm   3.2 km/h 72 % 0 mm
04:41 8.7 °C 3.7 °C 1015.8 hPa East 1.6 km/h 3.2 km/h 71 % 0 mm
04:46 8.7 °C 3.7 °C 1015.8 hPa ENE 3.2 km/h 3.2 km/h 71 % 0 mm
04:51 8.8 °C 3.8 °C 1015.5 hPa Calm   4.8 km/h 71 % 0 mm
04:56 8.9 °C 3.9 °C 1015.8 hPa ENE 1.6 km/h 4.8 km/h 71 % 0 mm
05:01 8.9 °C 3.9 °C 1015.5 hPa Calm   4.8 km/h 71 % 0 mm
05:06 8.9 °C 4.1 °C 1015.5 hPa Calm   4.8 km/h 72 % 0 mm
05:11 8.9 °C 4.1 °C 1015.5 hPa Calm   3.2 km/h 72 % 0 mm
05:16 9.1 °C 4.5 °C 1015.8 hPa Calm   6.4 km/h 73 % 0 mm
05:21 9.2 °C 4.4 °C 1015.8 hPa Calm   6.4 km/h 72 % 0 mm
05:26 9.2 °C 4.4 °C 1015.8 hPa Calm   6.4 km/h 72 % 0 mm
05:31 9.2 °C 4.6 °C 1015.8 hPa Calm   4.8 km/h 73 % 0 mm
05:36 9.2 °C 4.6 °C 1016.1 hPa Calm   3.2 km/h 73 % 0 mm
05:41 9.1 °C 4.5 °C 1016.1 hPa Calm   1.6 km/h 73 % 0 mm
05:42 9.1 °C 4.5 °C 1016.1 hPa Calm   1.6 km/h 73 % 0 mm
05:47 8.9 °C 4.5 °C 1016.1 hPa Calm   1.6 km/h 74 % 0 mm
05:52 8.8 °C 4.4 °C 1016.1 hPa Calm   1.6 km/h 74 % 0 mm
05:57 8.6 °C 4.4 °C 1016.1 hPa Calm   1.6 km/h 75 % 0 mm
06:02 8.6 °C 4.6 °C 1016.1 hPa Calm   1.6 km/h 76 % 0 mm
06:07 8.5 °C 4.5 °C 1016.1 hPa Calm   1.6 km/h 76 % 0 mm
06:12 8.3 °C 4.7 °C 1016.5 hPa Calm     78 % 0 mm
06:17 8.3 °C 4.7 °C 1016.5 hPa Calm   1.6 km/h 78 % 0 mm
06:22 8.3 °C 4.9 °C 1016.1 hPa Calm   1.6 km/h 79 % 0 mm
06:27 8.2 °C 4.8 °C 1016.1 hPa Calm   1.6 km/h 79 % 0 mm
06:32 8.2 °C 5 °C 1016.1 hPa Calm   1.6 km/h 80 % 0 mm
06:37 8.2 °C 5.1 °C 1016.1 hPa Calm   1.6 km/h 81 % 0 mm
06:42 8.3 °C 5.2 °C 1016.1 hPa Calm   1.6 km/h 81 % 0 mm
06:47 8.3 °C 5.4 °C 1016.1 hPa Calm   1.6 km/h 82 % 0 mm
06:52 8.3 °C 5.4 °C 1016.1 hPa Calm   1.6 km/h 82 % 0 mm
06:57 8.3 °C 5.6 °C 1016.1 hPa Calm   1.6 km/h 83 % 0 mm
07:02 8.6 °C 6 °C 1016.1 hPa SSE 1.6 km/h 4.8 km/h 84 % 0 mm
07:07 8.8 °C 6.2 °C 1016.1 hPa SE 3.2 km/h 6.4 km/h 84 % 0 mm
07:12 9.1 °C 6.4 °C 1016.1 hPa ESE 4.8 km/h 6.4 km/h 83 % 0 mm
07:17 9.3 °C 6.6 °C 1016.1 hPa SE 1.6 km/h 6.4 km/h 83 % 0 mm
07:22 9.5 °C 6.8 °C 1016.1 hPa ESE 1.6 km/h 6.4 km/h 83 % 0 mm
07:27 9.7 °C 7 °C 1016.1 hPa SE 1.6 km/h 6.4 km/h 83 % 0 mm
07:32 9.9 °C 7 °C 1016.1 hPa East 3.2 km/h 6.4 km/h 82 % 0 mm
07:37 10.1 °C 7.2 °C 1016.1 hPa NE 3.2 km/h 8 km/h 82 % 0 mm
07:42 10.3 °C 7.4 °C 1016.5 hPa East 3.2 km/h 8 km/h 82 % 0 mm
07:47 10.8 °C 7.9 °C 1016.5 hPa East 1.6 km/h 8 km/h 82 % 0 mm
07:52 11.2 °C 8.1 °C 1016.5 hPa Calm   6.4 km/h 81 % 0 mm
07:57 11.6 °C 8.1 °C 1016.5 hPa ESE 3.2 km/h 4.8 km/h 79 % 0 mm
08:02 11.9 °C 8.4 °C 1016.5 hPa Calm   6.4 km/h 79 % 0 mm
08:07 12.3 °C 8.6 °C 1016.5 hPa East 4.8 km/h 6.4 km/h 78 % 0 mm
08:12 12.7 °C 9.2 °C 1016.5 hPa East 1.6 km/h 8 km/h 79 % 0 mm
08:17 13.1 °C 9.4 °C 1016.5 hPa ENE 9.7 km/h 9.7 km/h 78 % 0 mm
08:22 13.2 °C 9.4 °C 1016.5 hPa East 4.8 km/h 12.9 km/h 78 % 0 mm
08:27 13.5 °C 9.7 °C 1016.8 hPa East 4.8 km/h 12.9 km/h 78 % 0 mm
08:32 13.7 °C 9.7 °C 1016.8 hPa East 4.8 km/h 12.9 km/h 77 % 0 mm
08:37 14 °C 10.2 °C 1016.8 hPa ESE 4.8 km/h 9.7 km/h 78 % 0 mm
08:42 14.3 °C 10.5 °C 1016.8 hPa ESE 1.6 km/h 11.3 km/h 78 % 0 mm
08:47 14.7 °C 10.5 °C 1017.2 hPa SE 4.8 km/h 11.3 km/h 76 % 0 mm
08:52 15 °C 10.8 °C 1017.2 hPa SE 6.4 km/h 11.3 km/h 76 % 0 mm
08:57 15.2 °C 11 °C 1016.8 hPa SE 1.6 km/h 12.9 km/h 76 % 0 mm
09:02 15.5 °C 11.3 °C 1016.8 hPa ESE 4.8 km/h 12.9 km/h 76 % 0 mm
09:07 15.8 °C 11.4 °C 1016.8 hPa SE 6.4 km/h 12.9 km/h 75 % 0 mm
09:08 15.9 °C 11.5 °C 1016.8 hPa SSE 1.6 km/h 12.9 km/h 75 % 0 mm
09:13 16.3 °C 12.1 °C 1017.2 hPa East 9.7 km/h 14.5 km/h 76 % 0 mm
09:18 16.7 °C 12 °C 1017.2 hPa ENE 3.2 km/h 14.5 km/h 74 % 0 mm
09:23 17.1 °C 12.4 °C 1017.2 hPa ESE 4.8 km/h 14.5 km/h 74 % 0 mm
09:28 17.4 °C 12.5 °C 1016.8 hPa ESE 9.7 km/h 14.5 km/h 73 % 0 mm
09:33 17.8 °C 12.7 °C 1017.2 hPa ESE 12.9 km/h 19.3 km/h 72 % 0 mm
09:38 18.1 °C 13 °C 1016.8 hPa SSE 14.5 km/h 19.3 km/h 72 % 0 mm
09:43 18.3 °C 13.2 °C 1016.8 hPa ESE 6.4 km/h 19.3 km/h 72 % 0 mm
09:48 18.8 °C 13.4 °C 1016.8 hPa East 8 km/h 19.3 km/h 71 % 0 mm
09:53 18.9 °C 13.5 °C 1016.8 hPa SE 4.8 km/h 17.7 km/h 71 % 0 mm
09:58 18.9 °C 13.5 °C 1016.8 hPa SSE 9.7 km/h 17.7 km/h 71 % 0 mm
10:03 19.2 °C 13.6 °C 1017.2 hPa ESE 8 km/h 19.3 km/h 70 % 0 mm
10:08 19.8 °C 14.2 °C 1017.2 hPa East 4.8 km/h 20.9 km/h 70 % 0 mm
10:13 20.3 °C 14.4 °C 1017.2 hPa ESE 11.3 km/h 20.9 km/h 69 % 0 mm
10:18 20.6 °C 14.5 °C 1017.2 hPa South 11.3 km/h 20.9 km/h 68 % 0 mm
10:23 21.1 °C 14.7 °C 1016.8 hPa SE 14.5 km/h 19.3 km/h 67 % 0 mm
10:28 21.3 °C 14.7 °C 1017.2 hPa East 11.3 km/h 19.3 km/h 66 % 0 mm
10:33 21.3 °C 14.5 °C 1016.8 hPa SSE 8 km/h 24.1 km/h 65 % 0 mm
10:38 21.3 °C 14.5 °C 1017.2 hPa SSE 12.9 km/h 24.1 km/h 65 % 0 mm
10:43 21.2 °C 14.6 °C 1017.2 hPa ESE 14.5 km/h 24.1 km/h 66 % 0 mm
10:49 21.2 °C 14.6 °C 1016.8 hPa SE 24.1 km/h 24.1 km/h 66 % 0 mm
10:54 21.3 °C 14.7 °C 1017.2 hPa ESE 22.5 km/h 30.6 km/h 66 % 0 mm
10:59 21.6 °C 15 °C 1016.8 hPa ESE 22.5 km/h 30.6 km/h 66 % 0 mm
11:00 21.6 °C 14.7 °C 1016.8 hPa South 16.1 km/h 30.6 km/h 65 % 0 mm
11:05 21.9 °C 15.3 °C 1016.8 hPa ESE 11.3 km/h 30.6 km/h 66 % 0 mm
11:10 22.2 °C 15.5 °C 1016.8 hPa SSE 14.5 km/h 29 km/h 66 % 0 mm
11:15 22.2 °C 15.1 °C 1016.8 hPa SSE 9.7 km/h 25.7 km/h 64 % 0 mm
11:20 22.2 °C 15.1 °C 1016.8 hPa ESE 17.7 km/h 24.1 km/h 64 % 0 mm
11:25 22.2 °C 15.1 °C 1016.5 hPa SE 17.7 km/h 29 km/h 64 % 0 mm
11:30 22 °C 15.1 °C 1016.5 hPa SE 17.7 km/h 32.2 km/h 65 % 0 mm
11:35 21.8 °C 14.9 °C 1016.5 hPa SE 20.9 km/h 32.2 km/h 65 % 0 mm
11:40 21.9 °C 15.3 °C 1016.1 hPa SE 14.5 km/h 32.2 km/h 66 % 0 mm
11:45 22.1 °C 15.2 °C 1016.1 hPa SE 14.5 km/h 30.6 km/h 65 % 0 mm
11:50 22.4 °C 15.5 °C 1016.1 hPa SSE 9.7 km/h 25.7 km/h 65 % 0 mm
11:55 22.8 °C 15.6 °C 1015.8 hPa ESE 20.9 km/h 24.1 km/h 64 % 0 mm
12:00 22.6 °C 15.4 °C 1016.1 hPa South 11.3 km/h 27.4 km/h 64 % 0 mm
12:05 22.6 °C 15.4 °C 1015.8 hPa SE 14.5 km/h 27.4 km/h 64 % 0 mm
12:10 22.7 °C 15 °C 1015.8 hPa ESE 22.5 km/h 27.4 km/h 62 % 0 mm
12:15 22.7 °C 15 °C 1015.8 hPa South 11.3 km/h 32.2 km/h 62 % 0 mm
12:20 22.7 °C 15 °C 1015.5 hPa SE 12.9 km/h 32.2 km/h 62 % 0 mm
12:25 22.6 °C 14.9 °C 1015.5 hPa SSE 6.4 km/h 32.2 km/h 62 % 0 mm
12:30 22.8 °C 15.4 °C 1015.5 hPa SE 9.7 km/h 30.6 km/h 63 % 0 mm
12:35 23 °C 15.1 °C 1015.1 hPa SE 22.5 km/h 29 km/h 61 % 0 mm
12:40 23.1 °C 15.2 °C 1015.1 hPa South 4.8 km/h 33.8 km/h 61 % 0 mm
12:45 23.2 °C 15 °C 1014.8 hPa SSW 14.5 km/h 33.8 km/h 60 % 0 mm
12:50 23.3 °C 15.4 °C 1014.8 hPa SE 14.5 km/h 33.8 km/h 61 % 0 mm
12:56 23.1 °C 15.2 °C 1014.8 hPa SE 19.3 km/h 29 km/h 61 % 0 mm
13:01 23.1 °C 15.4 °C 1014.8 hPa SSW 12.9 km/h 33.8 km/h 62 % 0 mm
13:06 23.3 °C 15.1 °C 1014.4 hPa South 12.9 km/h 33.8 km/h 60 % 0 mm
13:11 23.5 °C 15.3 °C 1014.4 hPa SE 19.3 km/h 33.8 km/h 60 % 0 mm
13:16 23.4 °C 15.2 °C 1014.4 hPa East 12.9 km/h 30.6 km/h 60 % 0 mm
13:21 23.5 °C 15.8 °C 1014.4 hPa SE 17.7 km/h 25.7 km/h 62 % 0 mm
13:26 23.5 °C 15 °C 1014.4 hPa SE 14.5 km/h 25.7 km/h 59 % 0 mm
13:31 23.2 °C 15.3 °C 1014.1 hPa SE 11.3 km/h 32.2 km/h 61 % 0 mm
13:37 23.2 °C 15.3 °C 1014.1 hPa South 12.9 km/h 32.2 km/h 61 % 0 mm
13:42 23.2 °C 15 °C 1014.1 hPa SSE 14.5 km/h 32.2 km/h 60 % 0 mm
13:47 23 °C 15.1 °C 1014.1 hPa SSE 8 km/h 27.4 km/h 61 % 0 mm
13:52 22.9 °C 15.5 °C 1014.1 hPa SE 8 km/h 27.4 km/h 63 % 0 mm
13:57 22.8 °C 15.1 °C 1014.1 hPa SSE 12.9 km/h 25.7 km/h 62 % 0 mm
14:02 22.8 °C 14.9 °C 1013.8 hPa ESE 9.7 km/h 22.5 km/h 61 % 0 mm
14:06 22.7 °C 15 °C 1013.8 hPa SE 9.7 km/h 22.5 km/h 62 % 0 mm
14:12 22.7 °C 15 °C 1013.8 hPa SSE 17.7 km/h 24.1 km/h 62 % 0 mm
14:17 22.6 °C 14.9 °C 1013.8 hPa South 17.7 km/h 27.4 km/h 62 % 0 mm
14:22 22.6 °C 15.2 °C 1013.8 hPa ESE 9.7 km/h 27.4 km/h 63 % 0 mm
14:27 22.4 °C 15 °C 1013.8 hPa SSE 20.9 km/h 27.4 km/h 63 % 0 mm
14:32 22.4 °C 15.3 °C 1013.8 hPa SE 12.9 km/h 32.2 km/h 64 % 0 mm
14:37 22.4 °C 15.3 °C 1013.8 hPa SSE 19.3 km/h 32.2 km/h 64 % 0 mm
14:42 22.4 °C 15.5 °C 1013.8 hPa SE 6.4 km/h 32.2 km/h 65 % 0 mm
14:47 22.3 °C 15.2 °C 1013.4 hPa SE 11.3 km/h 29 km/h 64 % 0 mm
14:52 22.3 °C 15.4 °C 1013.4 hPa SSE 11.3 km/h 29 km/h 65 % 0 mm
14:57 22.4 °C 15.7 °C 1013.4 hPa SE 6.4 km/h 29 km/h 66 % 0 mm
15:02 22.3 °C 15.9 °C 1013.4 hPa SE 14.5 km/h 24.1 km/h 67 % 0 mm
15:07 22.2 °C 16 °C 1013.4 hPa SE 9.7 km/h 20.9 km/h 68 % 0 mm
15:12 22.2 °C 16 °C 1013.4 hPa East 11.3 km/h 20.9 km/h 68 % 0 mm
15:17 22.3 °C 16.1 °C 1013.4 hPa South 9.7 km/h 20.9 km/h 68 % 0 mm
15:22 22.4 °C 16.2 °C 1013.4 hPa ESE 11.3 km/h 19.3 km/h 68 % 0 mm
15:27 22.3 °C 16.1 °C 1013.4 hPa SE 17.7 km/h 19.3 km/h 68 % 0 mm
15:32 22.2 °C 16.2 °C 1013.4 hPa SSE 11.3 km/h 22.5 km/h 69 % 0 mm
15:37 22.2 °C 16.2 °C 1013.4 hPa ESE 14.5 km/h 22.5 km/h 69 % 0 mm
15:42 22.3 °C 16.3 °C 1013.1 hPa SE 9.7 km/h 22.5 km/h 69 % 0 mm
15:47 22.3 °C 16.3 °C 1013.1 hPa East 11.3 km/h 20.9 km/h 69 % 0 mm
15:52 22.3 °C 16.1 °C 1013.1 hPa ESE 9.7 km/h 20.9 km/h 68 % 0 mm
15:57 22.3 °C 16.3 °C 1013.1 hPa SSW 9.7 km/h 19.3 km/h 69 % 0 mm
16:02 22.2 °C 16.5 °C 1013.1 hPa SE 8 km/h 22.5 km/h 70 % 0 mm
16:07 22.1 °C 16.6 °C 1013.1 hPa SE 11.3 km/h 22.5 km/h 71 % 0 mm
16:12 22 °C 16.5 °C 1013.1 hPa SE 14.5 km/h 22.5 km/h 71 % 0 mm
16:17 21.9 °C 16.6 °C 1013.1 hPa SSE 9.7 km/h 22.5 km/h 72 % 0 mm
16:22 21.9 °C 16.6 °C 1013.1 hPa SE 8 km/h 22.5 km/h 72 % 0 mm
16:27 21.7 °C 16.4 °C 1013.1 hPa SE 9.7 km/h 22.5 km/h 72 % 0 mm
16:32 21.7 °C 16.6 °C 1013.1 hPa ESE 14.5 km/h 22.5 km/h 73 % 0 mm
16:37 21.7 °C 16.6 °C 1013.1 hPa ESE 14.5 km/h 22.5 km/h 73 % 0 mm
16:42 21.6 °C 16.6 °C 1012.8 hPa SE 12.9 km/h 22.5 km/h 73 % 0 mm
16:47 21.6 °C 16.8 °C 1013.1 hPa ESE 4.8 km/h 22.5 km/h 74 % 0 mm
16:52 21.6 °C 16.8 °C 1012.8 hPa SE 8 km/h 22.5 km/h 74 % 0 mm
16:57 21.6 °C 16.8 °C 1012.8 hPa ESE 6.4 km/h 17.7 km/h 74 % 0 mm
17:02 21.6 °C 16.8 °C 1013.1 hPa SE 6.4 km/h 22.5 km/h 74 % 0 mm
17:07 21.6 °C 16.8 °C 1012.8 hPa SSE 9.7 km/h 22.5 km/h 74 % 0 mm
17:12 21.5 °C 16.7 °C 1013.1 hPa ESE 16.1 km/h 22.5 km/h 74 % 0 mm
17:17 21.4 °C 16.8 °C 1012.8 hPa SE 6.4 km/h 20.9 km/h 75 % 0 mm
17:22 21.4 °C 16.8 °C 1012.8 hPa SE 19.3 km/h 20.9 km/h 75 % 0 mm
17:27 21.3 °C 16.7 °C 1012.8 hPa SSE 9.7 km/h 19.3 km/h 75 % 0 mm
17:32 21.3 °C 16.9 °C 1012.8 hPa SE 8 km/h 19.3 km/h 76 % 0 mm
17:37 21.1 °C 16.9 °C 1012.8 hPa SE 1.6 km/h 22.5 km/h 77 % 0 mm
17:42 21 °C 16.8 °C 1013.1 hPa SSE 11.3 km/h 22.5 km/h 77 % 0 mm
17:47 20.9 °C 16.7 °C 1012.8 hPa SE 4.8 km/h 22.5 km/h 77 % 0 mm
17:52 20.9 °C 16.9 °C 1013.1 hPa ESE 3.2 km/h 19.3 km/h 78 % 0 mm
17:57 20.9 °C 16.9 °C 1013.1 hPa ESE 8 km/h 19.3 km/h 78 % 0 mm
18:02 20.9 °C 16.9 °C 1013.1 hPa SSE 9.7 km/h 20.9 km/h 78 % 0 mm
18:07 20.8 °C 17 °C 1012.8 hPa ESE 4.8 km/h 20.9 km/h 79 % 0 mm
18:12 20.8 °C 17 °C 1013.1 hPa SE 17.7 km/h 20.9 km/h 79 % 0 mm
18:17 20.7 °C 16.9 °C 1013.1 hPa ESE 17.7 km/h 24.1 km/h 79 % 0 mm
18:22 20.7 °C 17.1 °C 1013.1 hPa ESE 12.9 km/h 24.1 km/h 80 % 0 mm
18:27 20.7 °C 17.1 °C 1012.8 hPa SE 19.3 km/h 24.1 km/h 80 % 0 mm
18:32 20.6 °C 17 °C 1012.8 hPa SSE 4.8 km/h 24.1 km/h 80 % 0 mm
18:37 20.6 °C 17.2 °C 1013.1 hPa SE 6.4 km/h 24.1 km/h 81 % 0 mm
18:42 20.6 °C 17.2 °C 1013.1 hPa ESE 8 km/h 24.1 km/h 81 % 0 mm
18:47 20.5 °C 17.1 °C 1013.1 hPa SE 9.7 km/h 20.9 km/h 81 % 0 mm
18:52 20.4 °C 17.2 °C 1013.1 hPa ESE 6.4 km/h 20.9 km/h 82 % 0 mm
18:57 20.4 °C 17.2 °C 1013.1 hPa ENE 14.5 km/h 19.3 km/h 82 % 0 mm
19:02 20.3 °C 17.1 °C 1013.1 hPa SE 6.4 km/h 19.3 km/h 82 % 0 mm
19:07 20.3 °C 17.3 °C 1013.1 hPa SE 8 km/h 19.3 km/h 83 % 0 mm
19:12 20.3 °C 17.3 °C 1013.1 hPa East 11.3 km/h 19.3 km/h 83 % 0 mm
19:17 20.2 °C 17.2 °C 1013.1 hPa SE 6.4 km/h 16.1 km/h 83 % 0 mm
19:22 20.2 °C 17.2 °C 1013.1 hPa SSE 6.4 km/h 17.7 km/h 83 % 0 mm
19:27 20.2 °C 17.4 °C 1013.1 hPa SE 9.7 km/h 17.7 km/h 84 % 0 mm
19:32 20.2 °C 17.4 °C 1013.1 hPa ESE 11.3 km/h 17.7 km/h 84 % 0 mm
19:37 20.2 °C 17.4 °C 1013.1 hPa SE 12.9 km/h 17.7 km/h 84 % 0 mm
19:43 20.1 °C 17.3 °C 1013.1 hPa South 1.6 km/h 17.7 km/h 84 % 0 mm
19:48 20.1 °C 17.3 °C 1013.4 hPa Calm   16.1 km/h 84 % 0 mm
19:53 20.1 °C 17.5 °C 1013.4 hPa SE 4.8 km/h 16.1 km/h 85 % 0 mm
19:58 20.1 °C 17.5 °C 1013.4 hPa ESE 3.2 km/h 16.1 km/h 85 % 0 mm
20:03 20 °C 17.4 °C 1013.4 hPa SE 1.6 km/h 14.5 km/h 85 % 0 mm
20:08 19.9 °C 17.5 °C 1013.4 hPa East 4.8 km/h 14.5 km/h 86 % 0 mm
20:13 19.9 °C 17.5 °C 1013.8 hPa ESE 6.4 km/h 14.5 km/h 86 % 0 mm
20:18 19.9 °C 17.7 °C 1013.8 hPa SE 6.4 km/h 14.5 km/h 87 % 0 mm
20:23 19.8 °C 17.6 °C 1013.8 hPa ESE 4.8 km/h 14.5 km/h 87 % 0 mm
20:28 19.8 °C 17.6 °C 1013.8 hPa Calm   16.1 km/h 87 % 0 mm
20:33 19.8 °C 17.6 °C 1013.8 hPa East 1.6 km/h 16.1 km/h 87 % 0 mm
20:34 19.8 °C 17.6 °C 1013.8 hPa ESE 4.8 km/h 16.1 km/h 87 % 0 mm
20:39 19.8 °C 17.6 °C 1013.8 hPa East 8 km/h 16.1 km/h 87 % 0 mm
20:44 19.8 °C 17.8 °C 1013.8 hPa SE 6.4 km/h 14.5 km/h 88 % 0 mm
20:49 19.7 °C 17.7 °C 1013.8 hPa East 12.9 km/h 14.5 km/h 88 % 0 mm
20:54 19.7 °C 17.7 °C 1013.8 hPa ESE 9.7 km/h 16.1 km/h 88 % 0 mm
20:59 19.7 °C 17.7 °C 1013.8 hPa ESE 6.4 km/h 16.1 km/h 88 % 0 mm
21:04 19.7 °C 17.8 °C 1013.8 hPa SE 12.9 km/h 16.1 km/h 89 % 0 mm
21:09 19.6 °C 17.7 °C 1013.8 hPa SSE 4.8 km/h 16.1 km/h 89 % 0 mm
21:14 19.6 °C 17.7 °C 1013.8 hPa South 8 km/h 14.5 km/h 89 % 0 mm
21:19 19.6 °C 17.9 °C 1013.4 hPa SE 8 km/h 14.5 km/h 90 % 0 mm
21:24 19.5 °C 17.8 °C 1013.4 hPa ESE 6.4 km/h 14.5 km/h 90 % 0 mm
21:29 19.4 °C 17.7 °C 1013.4 hPa East 3.2 km/h 14.5 km/h 90 % 0 mm
21:34 19.4 °C 17.9 °C 1013.8 hPa ESE 1.6 km/h 12.9 km/h 91 % 0 mm
21:39 19.4 °C 17.9 °C 1013.8 hPa SW 1.6 km/h 12.9 km/h 91 % 0 mm
21:44 19.3 °C 17.8 °C 1013.8 hPa SE 3.2 km/h 12.9 km/h 91 % 0 mm
21:49 19.3 °C 17.8 °C 1013.8 hPa ESE 3.2 km/h 11.3 km/h 91 % 0 mm
21:54 19.3 °C 17.8 °C 1014.1 hPa ESE 3.2 km/h 9.7 km/h 91 % 0 mm
21:59 19.3 °C 18 °C 1013.8 hPa SE 8 km/h 9.7 km/h 92 % 0 mm
22:04 19.3 °C 18 °C 1014.1 hPa SE 6.4 km/h 9.7 km/h 92 % 0 mm
22:09 19.4 °C 18.1 °C 1014.1 hPa East 3.2 km/h 11.3 km/h 92 % 0 mm
22:14 19.4 °C 18.1 °C 1014.1 hPa Calm   11.3 km/h 92 % 0 mm
22:19 19.4 °C 18.1 °C 1014.1 hPa SE 1.6 km/h 11.3 km/h 92 % 0 mm
22:25 19.5 °C 18.2 °C 1014.1 hPa SSE 3.2 km/h 11.3 km/h 92 % 0 mm
22:30 19.5 °C 18.2 °C 1014.1 hPa SE 1.6 km/h 11.3 km/h 92 % 0 mm
22:35 19.5 °C 18.2 °C 1013.8 hPa Calm   9.7 km/h 92 % 0 mm
22:40 19.4 °C 18.1 °C 1014.1 hPa ENE 4.8 km/h 9.7 km/h 92 % 0 mm
22:45 19.4 °C 18.1 °C 1013.8 hPa Calm   9.7 km/h 92 % 0 mm
22:50 19.5 °C 18.2 °C 1013.8 hPa ESE 1.6 km/h 9.7 km/h 92 % 0 mm
22:55 19.5 °C 18.3 °C 1013.8 hPa SE 4.8 km/h 9.7 km/h 93 % 0 mm
23:00 19.5 °C 18.3 °C 1013.4 hPa ESE 9.7 km/h 9.7 km/h 93 % 0 mm
23:05 19.5 °C 18.3 °C 1013.4 hPa ESE 4.8 km/h 11.3 km/h 93 % 0 mm
23:10 19.5 °C 18.3 °C 1013.4 hPa SE 6.4 km/h 11.3 km/h 93 % 0 mm
23:15 19.5 °C 18.3 °C 1013.4 hPa South 1.6 km/h 11.3 km/h 93 % 0 mm
23:20 19.5 °C 18.3 °C 1013.1 hPa East 8 km/h 9.7 km/h 93 % 0 mm
23:25 19.5 °C 18.3 °C 1013.1 hPa SSE 4.8 km/h 9.7 km/h 93 % 0 mm
23:30 19.6 °C 18.4 °C 1012.8 hPa SE 4.8 km/h 9.7 km/h 93 % 0 mm
23:35 19.6 °C 18.4 °C 1012.8 hPa SSW 3.2 km/h 12.9 km/h 93 % 0 mm
23:40 19.7 °C 18.7 °C 1013.1 hPa ESE 4.8 km/h 12.9 km/h 94 % 0 mm
23:45 19.7 °C 18.7 °C 1013.1 hPa SSE 4.8 km/h 12.9 km/h 94 % 0 mm
23:47 19.8 °C 18.8 °C 1013.1 hPa SE 4.8 km/h 12.9 km/h 94 % 0 mm
23:52 19.9 °C 18.9 °C 1013.1 hPa SE 9.7 km/h 12.9 km/h 94 % 0 mm
23:57 20 °C 18.8 °C 1013.1 hPa ESE 8 km/h 14.5 km/h 93 % 0 mm
Spring, Texas: Villages of Bridgestone
Compliments of Weather Underground - 2.75 mb

Script developed by  Jim McMurry - jmcmurry@mwt.net Adapted for the template by  Wim van der Kuil - Leuven-Template.eu

You find our weather info also at:

UK Metoffice

WeatherCloud

Weather Underground

Mid-South Weather Network

AWEKAS

Citizen Weather Observer Program (CWOP)

HAMweather, WeatherForYou, PWS Weather

Equipment we use:

Weather-station
Davis Vantage Vue

Weather-program
Meteohub

Weather-server
Debian 7.9 x86 (Guest)

Provider
DreamHost

Davis Vantage Vue

Meteohub

Debian 7.9 x86 (Guest)

DreamHost